Decoded Metar for CYVP (QUUJJUAQ in QC, CANADA) (IATA:YVP) | Meteo·Mobile Aviation Weather
aviador You're here:

CYVP Decoded Metar

QUUJJUAQ in QC, CANADA
Report Time2019-01-18 11:00:00
UTC Time2019-01-18 11:20:41
Flight Rules vfr VFR
Wind220° at 07 kt
W.Decomp.*RWY 25: 7.0 kt HW 0.7 kt LCW
RWY 31: 2.8 kt HW 6.4 kt LCW
W.Rank220° ranks 6
Current wind is below 220° avg. (7.5)
Visibility9999 m
Phenomena:N/A
Clouds:N/A
Expected CloudBase > 1,600 ft AGL from Temp-Dew spread
CeilingNone
Temp-36°C (ISA -51)
Dew Point-40°C (66% RH)
AAT-42.5°C
QNH1013 hPa
Density Alt-6,542 ft
Elevation197 ft
Report Wrong Elevation
Raw Report
CYVP 181100Z 22007KT 15SM SKC M36/M40 A2990 RMK SLP133=

Extra information for CYVP:More info

Metar Taf Metar & Taf Last 4 Metars F.Rules Stats Wind Profile Meteogram Temp Stats Airport Information Weather charts Add Link Nearby VenuesMetar ALERT Operation Metar Decoded Social comments